sensor_id;sensor_type;location;lat;lon;timestamp;P1;durP1;ratioP1;P2;durP2;ratioP2
46505;SDS011;32220;49.808;9.968;2023-09-30T00:01:03;1.87;;;1.30;;
46505;SDS011;32220;49.808;9.968;2023-09-30T00:03:36;3.27;;;1.47;;
46505;SDS011;32220;49.808;9.968;2023-09-30T00:06:04;2.37;;;1.60;;
46505;SDS011;32220;49.808;9.968;2023-09-30T00:08:31;1.93;;;1.27;;
46505;SDS011;32220;49.808;9.968;2023-09-30T00:10:59;1.27;;;1.07;;
46505;SDS011;32220;49.808;9.968;2023-09-30T00:13:28;2.70;;;1.23;;
46505;SDS011;32220;49.808;9.968;2023-09-30T00:15:56;2.13;;;1.27;;
46505;SDS011;32220;49.808;9.968;2023-09-30T00:18:23;1.90;;;1.03;;
46505;SDS011;32220;49.808;9.968;2023-09-30T00:20:51;2.63;;;1.30;;
46505;SDS011;32220;49.808;9.968;2023-09-30T00:23:18;1.87;;;1.00;;
46505;SDS011;32220;49.808;9.968;2023-09-30T00:25:47;3.13;;;1.00;;
46505;SDS011;32220;49.808;9.968;2023-09-30T00:28:16;1.13;;;0.80;;
46505;SDS011;32220;49.808;9.968;2023-09-30T00:30:46;2.10;;;0.83;;
46505;SDS011;32220;49.808;9.968;2023-09-30T00:33:13;4.90;;;0.97;;
46505;SDS011;32220;49.808;9.968;2023-09-30T00:35:41;2.83;;;1.10;;
46505;SDS011;32220;49.808;9.968;2023-09-30T00:38:08;2.50;;;0.93;;
46505;SDS011;32220;49.808;9.968;2023-09-30T00:40:36;1.27;;;0.70;;
46505;SDS011;32220;49.808;9.968;2023-09-30T00:43:04;1.30;;;0.80;;
46505;SDS011;32220;49.808;9.968;2023-09-30T00:45:32;2.50;;;0.83;;
46505;SDS011;32220;49.808;9.968;2023-09-30T00:48:01;2.60;;;1.00;;
46505;SDS011;32220;49.808;9.968;2023-09-30T00:50:29;3.07;;;1.10;;
46505;SDS011;32220;49.808;9.968;2023-09-30T00:52:59;1.90;;;0.83;;
46505;SDS011;32220;49.808;9.968;2023-09-30T00:55:27;3.37;;;0.93;;
46505;SDS011;32220;49.808;9.968;2023-09-30T00:57:55;2.00;;;1.10;;
46505;SDS011;32220;49.808;9.968;2023-09-30T01:00:22;2.63;;;0.87;;
46505;SDS011;32220;49.808;9.968;2023-09-30T01:02:51;2.33;;;0.93;;
46505;SDS011;32220;49.808;9.968;2023-09-30T01:05:20;1.97;;;0.80;;
46505;SDS011;32220;49.808;9.968;2023-09-30T01:07:48;1.23;;;0.90;;
46505;SDS011;32220;49.808;9.968;2023-09-30T01:10:15;1.60;;;0.90;;
46505;SDS011;32220;49.808;9.968;2023-09-30T01:12:43;2.37;;;0.90;;
46505;SDS011;32220;49.808;9.968;2023-09-30T01:15:10;1.37;;;1.00;;
46505;SDS011;32220;49.808;9.968;2023-09-30T01:17:38;2.20;;;1.17;;
46505;SDS011;32220;49.808;9.968;2023-09-30T01:20:05;2.07;;;1.10;;
46505;SDS011;32220;49.808;9.968;2023-09-30T01:22:36;2.53;;;1.00;;
46505;SDS011;32220;49.808;9.968;2023-09-30T01:25:04;2.97;;;1.30;;
46505;SDS011;32220;49.808;9.968;2023-09-30T01:27:32;3.40;;;1.20;;
46505;SDS011;32220;49.808;9.968;2023-09-30T01:30:00;2.17;;;1.00;;
46505;SDS011;32220;49.808;9.968;2023-09-30T01:32:28;1.50;;;1.00;;
46505;SDS011;32220;49.808;9.968;2023-09-30T01:34:56;3.67;;;1.40;;
46505;SDS011;32220;49.808;9.968;2023-09-30T01:37:26;2.50;;;1.20;;
46505;SDS011;32220;49.808;9.968;2023-09-30T01:39:56;2.40;;;1.10;;
46505;SDS011;32220;49.808;9.968;2023-09-30T01:42:24;1.87;;;1.37;;
46505;SDS011;32220;49.808;9.968;2023-09-30T01:44:51;2.20;;;1.10;;
46505;SDS011;32220;49.808;9.968;2023-09-30T01:47:20;3.60;;;1.10;;
46505;SDS011;32220;49.808;9.968;2023-09-30T01:49:48;3.30;;;1.30;;
46505;SDS011;32220;49.808;9.968;2023-09-30T01:52:15;2.10;;;1.13;;
46505;SDS011;32220;49.808;9.968;2023-09-30T01:54:43;3.27;;;1.47;;
46505;SDS011;32220;49.808;9.968;2023-09-30T01:57:12;2.30;;;1.10;;
46505;SDS011;32220;49.808;9.968;2023-09-30T01:59:40;2.23;;;1.23;;
46505;SDS011;32220;49.808;9.968;2023-09-30T02:02:07;2.43;;;1.30;;
46505;SDS011;32220;49.808;9.968;2023-09-30T02:04:35;2.40;;;1.50;;
46505;SDS011;32220;49.808;9.968;2023-09-30T02:07:02;4.10;;;1.27;;
46505;SDS011;32220;49.808;9.968;2023-09-30T02:09:30;3.90;;;1.47;;
46505;SDS011;32220;49.808;9.968;2023-09-30T02:11:59;2.57;;;1.40;;
46505;SDS011;32220;49.808;9.968;2023-09-30T02:14:28;1.77;;;1.37;;
46505;SDS011;32220;49.808;9.968;2023-09-30T02:16:56;2.77;;;0.97;;
46505;SDS011;32220;49.808;9.968;2023-09-30T02:19:24;2.60;;;1.10;;
46505;SDS011;32220;49.808;9.968;2023-09-30T02:21:57;2.60;;;1.20;;
46505;SDS011;32220;49.808;9.968;2023-09-30T02:24:25;1.27;;;1.13;;
46505;SDS011;32220;49.808;9.968;2023-09-30T02:26:53;2.67;;;1.33;;
46505;SDS011;32220;49.808;9.968;2023-09-30T02:29:21;3.10;;;1.13;;
46505;SDS011;32220;49.808;9.968;2023-09-30T02:31:50;1.97;;;1.50;;
46505;SDS011;32220;49.808;9.968;2023-09-30T02:34:20;2.30;;;1.27;;
46505;SDS011;32220;49.808;9.968;2023-09-30T02:36:48;2.37;;;1.13;;
46505;SDS011;32220;49.808;9.968;2023-09-30T02:39:15;2.83;;;1.50;;
46505;SDS011;32220;49.808;9.968;2023-09-30T02:41:43;3.30;;;1.10;;
46505;SDS011;32220;49.808;9.968;2023-09-30T02:44:11;1.77;;;1.10;;
46505;SDS011;32220;49.808;9.968;2023-09-30T02:46:38;1.73;;;1.20;;
46505;SDS011;32220;49.808;9.968;2023-09-30T02:49:07;2.97;;;1.37;;
46505;SDS011;32220;49.808;9.968;2023-09-30T02:51:35;2.03;;;1.20;;
46505;SDS011;32220;49.808;9.968;2023-09-30T02:54:02;1.80;;;1.13;;
46505;SDS011;32220;49.808;9.968;2023-09-30T02:56:30;4.67;;;1.40;;
46505;SDS011;32220;49.808;9.968;2023-09-30T02:58:58;2.37;;;1.60;;
46505;SDS011;32220;49.808;9.968;2023-09-30T03:01:27;2.17;;;1.27;;
46505;SDS011;32220;49.808;9.968;2023-09-30T03:03:54;2.70;;;1.30;;
46505;SDS011;32220;49.808;9.968;2023-09-30T03:06:23;1.90;;;1.30;;
46505;SDS011;32220;49.808;9.968;2023-09-30T03:08:51;2.33;;;1.33;;
46505;SDS011;32220;49.808;9.968;2023-09-30T03:11:19;1.60;;;1.13;;
46505;SDS011;32220;49.808;9.968;2023-09-30T03:13:47;2.50;;;0.90;;
46505;SDS011;32220;49.808;9.968;2023-09-30T03:16:16;2.20;;;1.10;;
46505;SDS011;32220;49.808;9.968;2023-09-30T03:18:44;2.37;;;1.33;;
46505;SDS011;32220;49.808;9.968;2023-09-30T03:21:13;4.30;;;1.20;;
46505;SDS011;32220;49.808;9.968;2023-09-30T03:23:42;1.60;;;1.07;;
46505;SDS011;32220;49.808;9.968;2023-09-30T03:26:10;4.00;;;1.80;;
46505;SDS011;32220;49.808;9.968;2023-09-30T03:28:38;2.47;;;1.60;;
46505;SDS011;32220;49.808;9.968;2023-09-30T03:31:06;1.77;;;1.20;;
46505;SDS011;32220;49.808;9.968;2023-09-30T03:33:34;2.57;;;1.70;;
46505;SDS011;32220;49.808;9.968;2023-09-30T03:36:02;2.33;;;1.47;;
46505;SDS011;32220;49.808;9.968;2023-09-30T03:38:30;3.70;;;1.40;;
46505;SDS011;32220;49.808;9.968;2023-09-30T03:41:00;2.23;;;1.40;;
46505;SDS011;32220;49.808;9.968;2023-09-30T03:43:27;2.17;;;1.00;;
46505;SDS011;32220;49.808;9.968;2023-09-30T03:45:55;3.13;;;1.40;;
46505;SDS011;32220;49.808;9.968;2023-09-30T03:48:24;2.70;;;1.03;;
46505;SDS011;32220;49.808;9.968;2023-09-30T03:50:51;3.47;;;1.20;;
46505;SDS011;32220;49.808;9.968;2023-09-30T03:53:19;4.20;;;1.60;;
46505;SDS011;32220;49.808;9.968;2023-09-30T03:55:47;2.47;;;1.30;;
46505;SDS011;32220;49.808;9.968;2023-09-30T03:58:16;2.47;;;1.30;;
46505;SDS011;32220;49.808;9.968;2023-09-30T04:00:44;1.73;;;1.27;;
46505;SDS011;32220;49.808;9.968;2023-09-30T04:03:12;2.07;;;1.20;;
46505;SDS011;32220;49.808;9.968;2023-09-30T04:05:39;2.47;;;1.20;;
46505;SDS011;32220;49.808;9.968;2023-09-30T04:08:07;3.37;;;1.40;;
46505;SDS011;32220;49.808;9.968;2023-09-30T04:10:35;2.13;;;1.20;;
46505;SDS011;32220;49.808;9.968;2023-09-30T04:13:03;1.80;;;1.23;;
46505;SDS011;32220;49.808;9.968;2023-09-30T04:15:31;1.93;;;1.00;;
46505;SDS011;32220;49.808;9.968;2023-09-30T04:18:01;1.83;;;1.10;;
46505;SDS011;32220;49.808;9.968;2023-09-30T04:20:31;2.47;;;1.27;;
46505;SDS011;32220;49.808;9.968;2023-09-30T04:22:59;5.63;;;1.70;;
46505;SDS011;32220;49.808;9.968;2023-09-30T04:25:28;1.87;;;1.50;;
46505;SDS011;32220;49.808;9.968;2023-09-30T04:27:56;2.57;;;1.00;;
46505;SDS011;32220;49.808;9.968;2023-09-30T04:30:23;1.83;;;1.30;;
46505;SDS011;32220;49.808;9.968;2023-09-30T04:32:53;2.13;;;1.27;;
46505;SDS011;32220;49.808;9.968;2023-09-30T04:35:20;2.40;;;1.30;;
46505;SDS011;32220;49.808;9.968;2023-09-30T04:37:48;2.07;;;1.13;;
46505;SDS011;32220;49.808;9.968;2023-09-30T04:40:17;2.63;;;1.27;;
46505;SDS011;32220;49.808;9.968;2023-09-30T04:42:45;2.33;;;1.57;;
46505;SDS011;32220;49.808;9.968;2023-09-30T04:45:13;2.93;;;1.33;;
46505;SDS011;32220;49.808;9.968;2023-09-30T04:47:43;2.30;;;1.53;;
46505;SDS011;32220;49.808;9.968;2023-09-30T04:50:13;3.07;;;1.53;;
46505;SDS011;32220;49.808;9.968;2023-09-30T04:52:42;1.07;;;0.90;;
46505;SDS011;32220;49.808;9.968;2023-09-30T04:55:11;2.00;;;1.33;;
46505;SDS011;32220;49.808;9.968;2023-09-30T04:57:41;2.07;;;1.23;;
46505;SDS011;32220;49.808;9.968;2023-09-30T05:00:11;3.23;;;1.30;;
46505;SDS011;32220;49.808;9.968;2023-09-30T05:02:40;4.03;;;1.47;;
46505;SDS011;32220;49.808;9.968;2023-09-30T05:05:10;2.67;;;1.30;;
46505;SDS011;32220;49.808;9.968;2023-09-30T05:07:40;1.77;;;1.00;;
46505;SDS011;32220;49.808;9.968;2023-09-30T05:10:08;3.07;;;1.40;;
46505;SDS011;32220;49.808;9.968;2023-09-30T05:12:39;2.67;;;1.33;;
46505;SDS011;32220;49.808;9.968;2023-09-30T05:15:11;3.20;;;1.13;;
46505;SDS011;32220;49.808;9.968;2023-09-30T05:17:41;1.77;;;1.20;;
46505;SDS011;32220;49.808;9.968;2023-09-30T05:20:10;1.90;;;0.97;;
46505;SDS011;32220;49.808;9.968;2023-09-30T05:22:40;4.17;;;1.47;;
46505;SDS011;32220;49.808;9.968;2023-09-30T05:25:10;2.57;;;1.40;;
46505;SDS011;32220;49.808;9.968;2023-09-30T05:27:38;3.20;;;1.20;;
46505;SDS011;32220;49.808;9.968;2023-09-30T05:30:06;1.77;;;1.20;;
46505;SDS011;32220;49.808;9.968;2023-09-30T05:32:36;3.33;;;1.17;;
46505;SDS011;32220;49.808;9.968;2023-09-30T05:35:05;1.80;;;1.20;;
46505;SDS011;32220;49.808;9.968;2023-09-30T05:37:40;3.10;;;1.50;;
46505;SDS011;32220;49.808;9.968;2023-09-30T05:40:08;2.00;;;1.30;;
46505;SDS011;32220;49.808;9.968;2023-09-30T05:42:47;1.93;;;1.00;;
46505;SDS011;32220;49.808;9.968;2023-09-30T05:45:15;2.53;;;1.30;;
46505;SDS011;32220;49.808;9.968;2023-09-30T05:47:43;1.87;;;0.90;;
46505;SDS011;32220;49.808;9.968;2023-09-30T05:50:11;1.43;;;1.00;;
46505;SDS011;32220;49.808;9.968;2023-09-30T05:52:43;2.23;;;1.13;;
46505;SDS011;32220;49.808;9.968;2023-09-30T05:55:11;2.37;;;1.00;;
46505;SDS011;32220;49.808;9.968;2023-09-30T05:57:42;2.53;;;1.60;;
46505;SDS011;32220;49.808;9.968;2023-09-30T06:00:11;2.93;;;1.37;;
46505;SDS011;32220;49.808;9.968;2023-09-30T06:02:46;3.27;;;1.33;;
46505;SDS011;32220;49.808;9.968;2023-09-30T06:05:14;3.93;;;1.23;;
46505;SDS011;32220;49.808;9.968;2023-09-30T06:07:49;1.83;;;1.37;;
46505;SDS011;32220;49.808;9.968;2023-09-30T06:10:17;2.90;;;1.23;;
46505;SDS011;32220;49.808;9.968;2023-09-30T06:12:45;1.30;;;0.87;;
46505;SDS011;32220;49.808;9.968;2023-09-30T06:15:13;3.00;;;1.30;;
46505;SDS011;32220;49.808;9.968;2023-09-30T06:17:41;1.97;;;1.23;;
46505;SDS011;32220;49.808;9.968;2023-09-30T06:20:10;4.03;;;1.43;;
46505;SDS011;32220;49.808;9.968;2023-09-30T06:22:43;2.37;;;1.13;;
46505;SDS011;32220;49.808;9.968;2023-09-30T06:25:13;1.30;;;1.20;;
46505;SDS011;32220;49.808;9.968;2023-09-30T06:27:42;3.67;;;1.50;;
46505;SDS011;32220;49.808;9.968;2023-09-30T06:30:10;2.87;;;1.50;;
46505;SDS011;32220;49.808;9.968;2023-09-30T06:32:39;1.43;;;1.10;;
46505;SDS011;32220;49.808;9.968;2023-09-30T06:35:07;2.90;;;1.30;;
46505;SDS011;32220;49.808;9.968;2023-09-30T06:37:36;2.23;;;1.50;;
46505;SDS011;32220;49.808;9.968;2023-09-30T06:40:05;3.77;;;1.10;;
46505;SDS011;32220;49.808;9.968;2023-09-30T06:42:36;1.93;;;1.20;;
46505;SDS011;32220;49.808;9.968;2023-09-30T06:45:06;2.20;;;1.20;;
46505;SDS011;32220;49.808;9.968;2023-09-30T06:47:36;1.90;;;1.27;;
46505;SDS011;32220;49.808;9.968;2023-09-30T06:50:04;3.00;;;1.40;;
46505;SDS011;32220;49.808;9.968;2023-09-30T06:52:38;2.67;;;1.13;;
46505;SDS011;32220;49.808;9.968;2023-09-30T06:55:07;2.57;;;1.40;;
46505;SDS011;32220;49.808;9.968;2023-09-30T06:57:37;2.13;;;1.30;;
46505;SDS011;32220;49.808;9.968;2023-09-30T07:00:06;3.47;;;1.40;;
46505;SDS011;32220;49.808;9.968;2023-09-30T07:02:35;3.77;;;1.47;;
46505;SDS011;32220;49.808;9.968;2023-09-30T07:05:05;4.37;;;1.67;;
46505;SDS011;32220;49.808;9.968;2023-09-30T07:07:33;1.73;;;1.20;;
46505;SDS011;32220;49.808;9.968;2023-09-30T07:10:00;2.70;;;1.63;;
46505;SDS011;32220;49.808;9.968;2023-09-30T07:12:29;3.47;;;1.53;;
46505;SDS011;32220;49.808;9.968;2023-09-30T07:14:59;2.47;;;1.50;;
46505;SDS011;32220;49.808;9.968;2023-09-30T07:17:26;2.73;;;1.27;;
46505;SDS011;32220;49.808;9.968;2023-09-30T07:19:54;2.07;;;1.33;;
46505;SDS011;32220;49.808;9.968;2023-09-30T07:22:21;1.53;;;1.20;;
46505;SDS011;32220;49.808;9.968;2023-09-30T07:24:48;2.63;;;1.70;;
46505;SDS011;32220;49.808;9.968;2023-09-30T07:27:16;2.97;;;1.53;;
46505;SDS011;32220;49.808;9.968;2023-09-30T07:29:44;2.17;;;1.30;;
46505;SDS011;32220;49.808;9.968;2023-09-30T07:32:13;2.43;;;1.23;;
46505;SDS011;32220;49.808;9.968;2023-09-30T07:34:40;2.80;;;1.40;;
46505;SDS011;32220;49.808;9.968;2023-09-30T07:37:08;2.23;;;1.50;;
46505;SDS011;32220;49.808;9.968;2023-09-30T07:39:36;2.37;;;1.43;;
46505;SDS011;32220;49.808;9.968;2023-09-30T07:42:04;3.50;;;1.47;;
46505;SDS011;32220;49.808;9.968;2023-09-30T07:44:32;3.47;;;1.70;;
46505;SDS011;32220;49.808;9.968;2023-09-30T07:46:59;3.17;;;1.40;;
46505;SDS011;32220;49.808;9.968;2023-09-30T07:49:29;1.87;;;1.37;;
46505;SDS011;32220;49.808;9.968;2023-09-30T07:51:58;2.00;;;1.00;;
46505;SDS011;32220;49.808;9.968;2023-09-30T07:54:25;6.00;;;1.50;;
46505;SDS011;32220;49.808;9.968;2023-09-30T07:56:53;3.80;;;1.90;;
46505;SDS011;32220;49.808;9.968;2023-09-30T07:59:21;3.40;;;1.60;;
46505;SDS011;32220;49.808;9.968;2023-09-30T08:01:49;2.80;;;1.50;;
46505;SDS011;32220;49.808;9.968;2023-09-30T08:04:16;2.23;;;1.30;;
46505;SDS011;32220;49.808;9.968;2023-09-30T08:06:45;3.13;;;1.67;;
46505;SDS011;32220;49.808;9.968;2023-09-30T08:09:13;4.00;;;1.67;;
46505;SDS011;32220;49.808;9.968;2023-09-30T08:11:41;4.63;;;1.63;;
46505;SDS011;32220;49.808;9.968;2023-09-30T08:14:09;3.00;;;1.50;;
46505;SDS011;32220;49.808;9.968;2023-09-30T08:16:37;3.00;;;1.60;;
46505;SDS011;32220;49.808;9.968;2023-09-30T08:19:04;3.57;;;1.57;;
46505;SDS011;32220;49.808;9.968;2023-09-30T08:21:33;3.27;;;2.00;;
46505;SDS011;32220;49.808;9.968;2023-09-30T08:24:02;2.73;;;1.40;;
46505;SDS011;32220;49.808;9.968;2023-09-30T08:26:30;4.00;;;1.50;;
46505;SDS011;32220;49.808;9.968;2023-09-30T08:28:57;4.67;;;1.80;;
46505;SDS011;32220;49.808;9.968;2023-09-30T08:31:25;2.57;;;1.70;;
46505;SDS011;32220;49.808;9.968;2023-09-30T08:33:52;4.47;;;2.10;;
46505;SDS011;32220;49.808;9.968;2023-09-30T08:36:19;4.23;;;1.70;;
46505;SDS011;32220;49.808;9.968;2023-09-30T08:38:46;5.87;;;1.80;;
46505;SDS011;32220;49.808;9.968;2023-09-30T08:41:17;4.90;;;1.83;;
46505;SDS011;32220;49.808;9.968;2023-09-30T08:43:59;3.73;;;1.80;;
46505;SDS011;32220;49.808;9.968;2023-09-30T08:46:29;3.73;;;1.40;;
46505;SDS011;32220;49.808;9.968;2023-09-30T08:48:58;2.83;;;1.77;;
46505;SDS011;32220;49.808;9.968;2023-09-30T08:51:28;3.20;;;1.93;;
46505;SDS011;32220;49.808;9.968;2023-09-30T08:53:57;4.10;;;2.30;;
46505;SDS011;32220;49.808;9.968;2023-09-30T08:56:28;2.40;;;1.87;;
46505;SDS011;32220;49.808;9.968;2023-09-30T08:58:56;2.27;;;1.80;;
46505;SDS011;32220;49.808;9.968;2023-09-30T09:01:25;2.60;;;1.83;;
46505;SDS011;32220;49.808;9.968;2023-09-30T09:03:54;2.33;;;1.40;;
46505;SDS011;32220;49.808;9.968;2023-09-30T09:06:21;4.97;;;2.00;;
46505;SDS011;32220;49.808;9.968;2023-09-30T09:08:50;2.20;;;2.00;;
46505;SDS011;32220;49.808;9.968;2023-09-30T09:11:18;4.37;;;1.97;;
46505;SDS011;32220;49.808;9.968;2023-09-30T09:13:48;5.10;;;1.80;;
46505;SDS011;32220;49.808;9.968;2023-09-30T09:16:16;2.37;;;1.90;;
46505;SDS011;32220;49.808;9.968;2023-09-30T09:18:45;5.83;;;2.20;;
46505;SDS011;32220;49.808;9.968;2023-09-30T09:21:13;2.70;;;2.00;;
46505;SDS011;32220;49.808;9.968;2023-09-30T09:23:43;3.77;;;2.30;;
46505;SDS011;32220;49.808;9.968;2023-09-30T09:26:12;2.87;;;1.80;;
46505;SDS011;32220;49.808;9.968;2023-09-30T09:28:51;3.30;;;2.00;;
46505;SDS011;32220;49.808;9.968;2023-09-30T09:31:24;4.87;;;2.20;;
46505;SDS011;32220;49.808;9.968;2023-09-30T09:33:53;3.67;;;2.03;;
46505;SDS011;32220;49.808;9.968;2023-09-30T09:36:20;5.03;;;1.97;;
46505;SDS011;32220;49.808;9.968;2023-09-30T09:38:48;6.13;;;2.40;;
46505;SDS011;32220;49.808;9.968;2023-09-30T09:41:19;4.20;;;2.30;;
46505;SDS011;32220;49.808;9.968;2023-09-30T09:43:48;3.90;;;2.57;;
46505;SDS011;32220;49.808;9.968;2023-09-30T09:46:18;4.53;;;2.53;;
46505;SDS011;32220;49.808;9.968;2023-09-30T09:48:46;4.17;;;2.13;;
46505;SDS011;32220;49.808;9.968;2023-09-30T09:51:14;3.87;;;2.40;;
46505;SDS011;32220;49.808;9.968;2023-09-30T09:53:42;4.50;;;2.33;;
46505;SDS011;32220;49.808;9.968;2023-09-30T09:56:10;4.77;;;2.10;;
46505;SDS011;32220;49.808;9.968;2023-09-30T09:58:39;3.57;;;2.40;;
46505;SDS011;32220;49.808;9.968;2023-09-30T10:01:09;3.30;;;2.13;;
46505;SDS011;32220;49.808;9.968;2023-09-30T10:03:39;3.97;;;1.93;;
46505;SDS011;32220;49.808;9.968;2023-09-30T10:06:06;4.63;;;2.60;;
46505;SDS011;32220;49.808;9.968;2023-09-30T10:08:36;3.70;;;1.93;;
46505;SDS011;32220;49.808;9.968;2023-09-30T10:11:06;4.87;;;2.80;;
46505;SDS011;32220;49.808;9.968;2023-09-30T10:13:51;4.43;;;2.30;;
46505;SDS011;32220;49.808;9.968;2023-09-30T10:19:18;4.03;;;2.07;;
46505;SDS011;32220;49.808;9.968;2023-09-30T10:24:48;2.50;;;1.97;;
46505;SDS011;32220;49.808;9.968;2023-09-30T10:27:31;2.70;;;2.30;;
46505;SDS011;32220;49.808;9.968;2023-09-30T10:30:07;3.83;;;2.20;;
46505;SDS011;32220;49.808;9.968;2023-09-30T10:38:37;4.60;;;2.37;;
46505;SDS011;32220;49.808;9.968;2023-09-30T10:41:07;2.87;;;1.97;;
46505;SDS011;32220;49.808;9.968;2023-09-30T10:43:36;4.13;;;1.90;;
46505;SDS011;32220;49.808;9.968;2023-09-30T10:46:10;2.97;;;2.10;;
46505;SDS011;32220;49.808;9.968;2023-09-30T10:52:03;3.87;;;2.17;;
46505;SDS011;32220;49.808;9.968;2023-09-30T10:54:31;5.10;;;2.47;;
46505;SDS011;32220;49.808;9.968;2023-09-30T10:57:00;3.73;;;2.00;;
46505;SDS011;32220;49.808;9.968;2023-09-30T10:59:29;3.67;;;2.50;;
46505;SDS011;32220;49.808;9.968;2023-09-30T11:01:58;3.63;;;2.33;;
46505;SDS011;32220;49.808;9.968;2023-09-30T11:04:25;4.53;;;2.70;;
46505;SDS011;32220;49.808;9.968;2023-09-30T11:06:54;4.87;;;2.60;;
46505;SDS011;32220;49.808;9.968;2023-09-30T11:09:23;6.50;;;2.57;;
46505;SDS011;32220;49.808;9.968;2023-09-30T11:11:52;4.63;;;3.27;;
46505;SDS011;32220;49.808;9.968;2023-09-30T11:14:20;5.90;;;3.20;;
46505;SDS011;32220;49.808;9.968;2023-09-30T11:16:50;7.10;;;3.33;;
46505;SDS011;32220;49.808;9.968;2023-09-30T11:19:19;6.25;;;2.88;;
46505;SDS011;32220;49.808;9.968;2023-09-30T11:21:48;6.35;;;3.10;;
46505;SDS011;32220;49.808;9.968;2023-09-30T11:24:16;5.88;;;3.70;;
46505;SDS011;32220;49.808;9.968;2023-09-30T11:26:45;6.03;;;4.72;;
46505;SDS011;32220;49.808;9.968;2023-09-30T11:29:13;6.55;;;5.70;;
46505;SDS011;32220;49.808;9.968;2023-09-30T11:31:43;7.90;;;7.13;;
46505;SDS011;32220;49.808;9.968;2023-09-30T11:34:12;6.73;;;4.53;;
46505;SDS011;32220;49.808;9.968;2023-09-30T11:36:47;4.40;;;3.33;;
46505;SDS011;32220;49.808;9.968;2023-09-30T11:39:21;4.17;;;3.30;;
46505;SDS011;32220;49.808;9.968;2023-09-30T11:41:51;5.30;;;3.10;;
46505;SDS011;32220;49.808;9.968;2023-09-30T11:44:19;5.27;;;3.07;;
46505;SDS011;32220;49.808;9.968;2023-09-30T11:46:47;5.60;;;3.00;;
46505;SDS011;32220;49.808;9.968;2023-09-30T11:49:26;5.77;;;2.73;;
46505;SDS011;32220;49.808;9.968;2023-09-30T11:51:55;4.30;;;2.80;;
46505;SDS011;32220;49.808;9.968;2023-09-30T11:54:28;4.63;;;3.13;;
46505;SDS011;32220;49.808;9.968;2023-09-30T11:57:02;5.37;;;2.90;;
46505;SDS011;32220;49.808;9.968;2023-09-30T11:59:30;5.33;;;3.27;;
46505;SDS011;32220;49.808;9.968;2023-09-30T12:01:58;4.93;;;3.20;;
46505;SDS011;32220;49.808;9.968;2023-09-30T12:04:25;4.67;;;3.10;;
46505;SDS011;32220;49.808;9.968;2023-09-30T12:06:53;5.17;;;3.40;;
46505;SDS011;32220;49.808;9.968;2023-09-30T12:09:21;5.10;;;3.17;;
46505;SDS011;32220;49.808;9.968;2023-09-30T12:11:51;5.57;;;3.17;;
46505;SDS011;32220;49.808;9.968;2023-09-30T12:14:21;6.00;;;3.27;;
46505;SDS011;32220;49.808;9.968;2023-09-30T12:16:48;4.67;;;2.93;;
46505;SDS011;32220;49.808;9.968;2023-09-30T12:19:16;5.87;;;3.53;;
46505;SDS011;32220;49.808;9.968;2023-09-30T12:21:44;8.97;;;4.60;;
46505;SDS011;32220;49.808;9.968;2023-09-30T12:24:14;5.35;;;3.47;;
46505;SDS011;32220;49.808;9.968;2023-09-30T12:26:43;5.68;;;3.50;;
46505;SDS011;32220;49.808;9.968;2023-09-30T12:29:14;4.38;;;3.17;;
46505;SDS011;32220;49.808;9.968;2023-09-30T12:31:45;6.28;;;3.60;;
46505;SDS011;32220;49.808;9.968;2023-09-30T12:34:12;5.00;;;3.28;;
46505;SDS011;32220;49.808;9.968;2023-09-30T12:36:41;5.50;;;4.00;;
46505;SDS011;32220;49.808;9.968;2023-09-30T12:39:09;5.35;;;3.70;;
46505;SDS011;32220;49.808;9.968;2023-09-30T12:41:38;5.88;;;3.80;;
46505;SDS011;32220;49.808;9.968;2023-09-30T12:44:06;5.57;;;3.67;;
46505;SDS011;32220;49.808;9.968;2023-09-30T12:46:33;4.85;;;2.90;;
46505;SDS011;32220;49.808;9.968;2023-09-30T12:49:04;5.10;;;3.20;;
46505;SDS011;32220;49.808;9.968;2023-09-30T12:51:32;4.13;;;3.10;;
46505;SDS011;32220;49.808;9.968;2023-09-30T12:54:00;5.93;;;3.57;;
46505;SDS011;32220;49.808;9.968;2023-09-30T12:56:28;5.33;;;3.00;;
46505;SDS011;32220;49.808;9.968;2023-09-30T12:58:56;4.43;;;2.80;;
46505;SDS011;32220;49.808;9.968;2023-09-30T13:01:24;6.40;;;3.20;;
46505;SDS011;32220;49.808;9.968;2023-09-30T13:03:51;6.17;;;3.30;;
46505;SDS011;32220;49.808;9.968;2023-09-30T13:06:21;5.80;;;3.13;;
46505;SDS011;32220;49.808;9.968;2023-09-30T13:08:48;3.77;;;2.63;;
46505;SDS011;32220;49.808;9.968;2023-09-30T13:11:16;4.90;;;3.63;;
46505;SDS011;32220;49.808;9.968;2023-09-30T13:13:43;5.80;;;3.47;;
46505;SDS011;32220;49.808;9.968;2023-09-30T13:16:11;6.73;;;3.63;;
46505;SDS011;32220;49.808;9.968;2023-09-30T13:18:39;4.97;;;3.10;;
46505;SDS011;32220;49.808;9.968;2023-09-30T13:21:06;4.30;;;2.77;;
46505;SDS011;32220;49.808;9.968;2023-09-30T13:23:36;6.53;;;3.57;;
46505;SDS011;32220;49.808;9.968;2023-09-30T13:26:04;6.70;;;3.00;;
46505;SDS011;32220;49.808;9.968;2023-09-30T13:28:31;5.40;;;3.40;;
46505;SDS011;32220;49.808;9.968;2023-09-30T13:30:58;4.03;;;2.83;;
46505;SDS011;32220;49.808;9.968;2023-09-30T13:33:26;6.27;;;3.33;;
46505;SDS011;32220;49.808;9.968;2023-09-30T13:35:54;6.70;;;3.30;;
46505;SDS011;32220;49.808;9.968;2023-09-30T13:38:22;4.83;;;3.30;;
46505;SDS011;32220;49.808;9.968;2023-09-30T13:40:51;5.60;;;3.23;;
46505;SDS011;32220;49.808;9.968;2023-09-30T13:43:19;5.17;;;3.40;;
46505;SDS011;32220;49.808;9.968;2023-09-30T13:45:46;5.90;;;3.17;;
46505;SDS011;32220;49.808;9.968;2023-09-30T13:48:14;5.43;;;3.40;;
46505;SDS011;32220;49.808;9.968;2023-09-30T13:50:42;5.43;;;2.97;;
46505;SDS011;32220;49.808;9.968;2023-09-30T13:53:09;4.43;;;2.87;;
46505;SDS011;32220;49.808;9.968;2023-09-30T13:55:37;5.47;;;3.43;;
46505;SDS011;32220;49.808;9.968;2023-09-30T13:58:06;5.50;;;3.43;;
46505;SDS011;32220;49.808;9.968;2023-09-30T14:00:35;5.07;;;3.33;;
46505;SDS011;32220;49.808;9.968;2023-09-30T14:03:03;4.70;;;3.10;;
46505;SDS011;32220;49.808;9.968;2023-09-30T14:05:31;5.97;;;3.53;;
46505;SDS011;32220;49.808;9.968;2023-09-30T14:07:58;5.33;;;3.30;;
46505;SDS011;32220;49.808;9.968;2023-09-30T14:10:26;4.27;;;2.90;;
46505;SDS011;32220;49.808;9.968;2023-09-30T14:12:55;5.53;;;3.33;;
46505;SDS011;32220;49.808;9.968;2023-09-30T14:15:25;5.53;;;3.13;;
46505;SDS011;32220;49.808;9.968;2023-09-30T14:17:54;4.57;;;3.13;;
46505;SDS011;32220;49.808;9.968;2023-09-30T14:20:21;5.13;;;3.13;;
46505;SDS011;32220;49.808;9.968;2023-09-30T14:22:49;5.03;;;3.10;;
46505;SDS011;32220;49.808;9.968;2023-09-30T14:25:17;4.17;;;2.97;;
46505;SDS011;32220;49.808;9.968;2023-09-30T14:27:45;4.67;;;2.93;;
46505;SDS011;32220;49.808;9.968;2023-09-30T14:30:12;6.33;;;3.60;;
46505;SDS011;32220;49.808;9.968;2023-09-30T14:32:42;5.37;;;3.33;;
46505;SDS011;32220;49.808;9.968;2023-09-30T14:35:09;5.03;;;3.27;;
46505;SDS011;32220;49.808;9.968;2023-09-30T14:37:37;4.77;;;3.40;;
46505;SDS011;32220;49.808;9.968;2023-09-30T14:40:05;5.83;;;3.43;;
46505;SDS011;32220;49.808;9.968;2023-09-30T14:42:36;6.07;;;3.67;;
46505;SDS011;32220;49.808;9.968;2023-09-30T14:45:04;6.27;;;3.40;;
46505;SDS011;32220;49.808;9.968;2023-09-30T14:47:32;4.60;;;3.13;;
46505;SDS011;32220;49.808;9.968;2023-09-30T14:50:02;5.20;;;2.57;;
46505;SDS011;32220;49.808;9.968;2023-09-30T14:52:30;6.43;;;3.57;;
46505;SDS011;32220;49.808;9.968;2023-09-30T14:54:58;5.53;;;3.40;;
46505;SDS011;32220;49.808;9.968;2023-09-30T14:57:25;4.73;;;3.47;;
46505;SDS011;32220;49.808;9.968;2023-09-30T14:59:53;4.43;;;3.23;;
46505;SDS011;32220;49.808;9.968;2023-09-30T15:02:20;7.33;;;3.60;;
46505;SDS011;32220;49.808;9.968;2023-09-30T15:04:49;5.40;;;3.10;;
46505;SDS011;32220;49.808;9.968;2023-09-30T15:07:18;6.43;;;3.20;;
46505;SDS011;32220;49.808;9.968;2023-09-30T15:09:45;5.93;;;3.53;;
46505;SDS011;32220;49.808;9.968;2023-09-30T15:12:13;6.17;;;3.50;;